Bezoek onze andere website:

Template documentation
and downloads

And another site


METAR rapporten vliegvelden

   
EBBR - Brussels International Airport, Belgium
Afstand tot: W 14 km
Gewijzigd: 23-02-2018 03:20
Helder  
Helder  
   Wind: ONO 11.1 km/h
Wind: ONO 11.1 km/h
Temperatuur: -3°C
Voelt als: -7°C
Dauwpunt: -6°C
Vochtigheid: 80%
Barometer: 1021 mb
Zicht: meer dan 10 km
Bewolking: Helder
EBBR 230220Z 06006KT CAVOK M03/M06 Q1021 NOSIG
EBBE - Beauvechain (Bevekom), Belgium
Afstand tot: ZZO 17 km
Gewijzigd: 23-02-2018 03:25
Helder  
Helder  
   Wind: NO 16.7 km/h
Wind: NO 16.7 km/h
Temperatuur: -3°C
Voelt als: -8°C
Dauwpunt: -7°C
Vochtigheid: 74%
Barometer: 1020 mb
Bewolking: Helder
Zicht: meer dan 10 km
Bewolking: Helder
EBBE 230225Z AUTO 05009KT 9999 NCD M03/M07 Q1020 BLU
EBDT - Schaffen, Belgium
Afstand tot: ONO 29 km
Gewijzigd: 23-02-2018 03:25
Helder  
Helder  
   Wind: NO 14.8 km/h
Wind: NO 14.8 km/h
Temperatuur: -2°C
Voelt als: -7°C
Dauwpunt: -6°C
Vochtigheid: 74%
Barometer: 1022 mb
Bewolking: Helder
Zicht: meer dan 10 km
Bewolking: Helder
EBDT 230225Z AUTO 04008KT 9999 NCD M02/M06 Q1022 BLU
EBAW - Antwerp/Deurne, Belgium
Afstand tot: NNW 38 km
Gewijzigd: 23-02-2018 03:20
Helder  
Helder  
   Wind: NO 14.8 km/h
Wind: NO 14.8 km/h
Temperatuur: -1°C
Voelt als: -6°C
Dauwpunt: -5°C
Vochtigheid: 75%
Barometer: 1022 mb
Zicht: meer dan 10 km
Bewolking: Helder
EBAW 230220Z AUTO 05008KT CAVOK M01/M05 Q1022
EBCI - Charleroi/Gosselies, Belgium
Afstand tot: ZZW 51 km
Gewijzigd: 23-02-2018 03:20
Helder  
Helder  
   Wind: NO 18.5 km/h
Wind: NO 18.5 km/h
Temperatuur: -3°C
Voelt als: -9°C
Dauwpunt: -6°C
Vochtigheid: 80%
Barometer: 1019 mb
Zicht: meer dan 10 km
Bewolking: Helder
EBCI 230220Z 05010KT CAVOK M03/M06 Q1019 NOSIG
EBLG - Bierset/Liege, Belgium
Afstand tot: OZO 60 km
Gewijzigd: 23-02-2018 03:20
Helder  
Helder  
   Wind: NO 13 km/h
Wind: NO 13 km/h
Temperatuur: -4°C
Voelt als: -9°C
Dauwpunt: -7°C
Vochtigheid: 80%
Barometer: 1020 mb
Zicht: meer dan 10 km
Bewolking: Helder
EBLG 230220Z 04007KT CAVOK M04/M07 Q1020 NOSIG

Script ontwikkeld door  Saratoga-weather.org Aangepast voor de template door  Weerstation Leuven

U vindt ons ook hier:

Het Weer Aktueel

WeatherCloud

Weather Underground